Airfield :
LOGIN :

Register | Disclaimer

   EN    FR    IT 

 










Legend :    VFR   Marginal VFR   IFR   Intensive IFR   Very Intensive IFR
Visi :
Ceiling :
>= 8 km
>= 3000ft
5 to 8 km
1000 to 3000 ft
1500m to 5 km
500 to 1000 ft
800 to 1500m
200 to 500 ft
< 800m
< 200 ft
Symbols :   Thunderstorms  Fog  Heavy snow  Heavy precipitations  Wind > 20 kt
SIGMETs :     Misc.  Thunderstorms  Icing  Turbulence  Mountain Waves  Volcanic Ashes







- Airport Elevation : 622 ft
- IATA code : BRS
- Download approach charts


EGGD - Bristol Int.

CURRENT METAR :
  • 241720Z AUTO 07014KT 9999 NCD 11/06 Q1029

EXPIRED METARs :
  • 241650Z AUTO 05015KT 9999 NCD 11/06 Q1028
  • 241620Z AUTO 04015KT 9999 SCT025 11/06 Q1028
  • 241550Z AUTO 04014KT 9999 SCT024 12/06 Q1028
  • 241520Z AUTO 05015KT 9999 SCT023 12/06 Q1029
  • 241450Z AUTO 05016KT 9999 BKN021 11/06 Q1029

TAF TAF EGGD
Valid from the 24 at 18:00 until the 25 at 18:00 UTC


241656Z 2418/2518 05015KT 9999 FEW020
PROB40
TEMPO 2503/2509 6000 BKN004
ATIS : +44 1275 473 666
No reported NOTAMs for that airfield.
1 SIGMET reported for the London FIR (EGTT) :
 
Severe turbulence
EGTT SIGMET 04 VALID 241500/241900 EGRR
EGTT LONDON FIR SEV TURB FCST S OF N5200 AND E OF W00400 FL180/320 MOV W 15KT NC=



MET'MAP, your aeronautical weather chart ! - Copyright ORBIFLY December 2007 - Disclaimer

ORBIFLY MET'MAP TEAM :

Programming & Development : Alexandra Zaïnal
Concept & Development : Baudouin d'Aumeries
Co-Development & Prog : Marc-Olivier Méhu
Technical & hardware support : Manuel Goepfert

Contact : metmap@orbifly.com




SOURCES & CREDITS :

   NOAA